AirNav   Pilot Hours Calculator
 
 860 users online  

4CA2 Funny Farm Airport
Brentwood, California, USA

GOING TO BRENTWOOD?


FAA INFORMATION EFFECTIVE 26 MARCH 2020

Location

FAA Identifier: 4CA2
Lat/Long: 37-56-48.7200N 121-38-50.8300W
37-56.812000N 121-38.847167W
37.9468667,-121.6474528
(estimated)
Elevation: 29 ft. / 9 m (estimated)
Variation: 16E (1995)
From city: 3 miles NE of BRENTWOOD, CA
Time zone: UTC -7 (UTC -8 during Standard Time)
Zip code: 94513

Airport Operations

Airport use: Private use. Permission required prior to landing
Activation date: 09/1999
Control tower: no
ARTCC: OAKLAND CENTER
FSS: OAKLAND FLIGHT SERVICE STATION
Attendance: DAYLIGHT HOURS
Wind indicator: yes
Segmented circle: no

Airport Communications

WX AWOS-3 at C83 (7 nm S): 123.775 (925-634-0906)
WX AWOS-AV at O88 (15 nm N): 127.075 (707-374-5396)
WX ASOS at LVK (17 nm SW): PHONE 925-606-5412
WX AWOS-3 at TCY (18 nm SE): 118.375 (209-831-4335)
WX ASOS at CCR (20 nm W): PHONE 925-689-2077
WX ASOS at SCK (20 nm E): PHONE 209-982-4270

Nearby radio navigation aids

VOR radial/distance  VOR name  Freq  Var
CCRr090/19.7CONCORD VOR/DME117.0017E
SACr172/30.2SACRAMENTO VORTAC115.2017E
OAKr047/30.3OAKLAND VOR/DME116.8017E
LINr239/31.4LINDEN VOR/DME114.8017E
SGDr095/37.0SCAGGS ISLAND VORTAC112.1017E
SJCr006/37.1SAN JOSE VOR/DME114.1016E
MODr283/37.9MODESTO VOR/DME114.6017E
SFOr043/39.7SAN FRANCISCO VOR/DME115.8017E

Airport Services

Runway Information

Runway 17/35

Dimensions: 1880 x 20 ft. / 573 x 6 m
Surface: asphalt
RUNWAY 17  RUNWAY 35
Traffic pattern: rightleft
Obstructions: 50 ft. trees, 100 ft. from runway50 ft. trees, 100 ft. from runway

Airport Ownership and Management from official FAA records

Ownership: Privately-owned
Owner: DAVID S. BEHNE
2651 PENNY LN
BRENTWOOD, CA 94513-5234
Phone (925) 580-1433
Manager: ERIC BEHNE
2651 PENNY LN
BRENTWOOD, CA 94513-5234
Phone (925) 580-1433

Airport Operational Statistics

Aircraft based on the field: 5
Single engine airplanes: 5
    
Aircraft operations: avg 50/month
83% local general aviation
17% transient general aviation

Additional Remarks

100 FT WATER TOWER 2.5 MILES SW OF ARPT.
FOR CD CTC NORCAL APCH AT 916-361-0516.

Instrument Procedures

There are no published instrument procedures at 4CA2.

Some nearby airports with instrument procedures:

C83 - Byron Airport (7 nm S)
O88 - Rio Vista Municipal Airport (15 nm N)
KLVK - Livermore Municipal Airport (17 nm SW)
KTCY - Tracy Municipal Airport (18 nm SE)
KCCR - Buchanan Field Airport (20 nm W)
KSCK - Stockton Metropolitan Airport (20 nm E)
 
Loc | Ops | Rwys | IFR | FBO | Links
Com | Nav | Svcs | Stats | Notes
Area around 4CA2 (Funny Farm Airport)
 
Road maps at: MapQuest Bing Google
 
Aerial photo
WARNING: Photo may not be current or correct
Aerial photo of 4CA2 (Funny Farm Airport)
Do you have a better or more recent aerial photo of Funny Farm Airport that you would like to share? If so, please send us your photo.

 
Sectional chart

 
Airport distance calculator
Flying to Funny Farm Airport? Find the distance to fly.

From to 4CA2

Sunrise and sunset
Times for 03-Apr-2020
 Local
(UTC-7)
 Zulu
(UTC)
Morning civil twilight06:2213:22
Sunrise06:4813:48
Sunset19:3102:31
Evening civil twilight19:5802:58

Current date and time
Zulu (UTC)  03-Apr-2020 22:15:04
Local (UTC-7)  03-Apr-2020 15:15:04
 
METAR
KLVK 
17nm SW 
032153Z VRB05KT 10SM CLR 18/03 A3000 RMK AO2 SLP156 T01780028
KTCY 
18nm SE 
032155Z AUTO 31010KT 10SM CLR 19/02 A2999 RMK A01
KCCR 
19nm W 
032153Z 31008KT 10SM CLR 19/M01 A3000 RMK AO2 SLP145 T01891006
TAF
KLVK 
17nm SW 
031739Z 0318/0418 26005KT P6SM FEW200 FM031900 28009KT P6SM SCT200 FM032200 28014KT P6SM SCT200 FM040400 25008KT P6SM SCT200 FM041100 25004KT P6SM BKN120 OVC150 PROB30 0417/0418 P6SM -RA OVC050
KSCK 
21nm E 
031732Z 0318/0418 30010KT P6SM SCT250 FM041000 28006KT P6SM BKN150 FM041700 19008KT P6SM -RA OVC035
NOTAMs
Click for the latest NOTAMs
NOTAMs are issued by the DoD/FAA and will open in a separate window not controlled by AirNav.

 

 
 

Would you like to see your business listed on this page?

 If your business provides an interesting product or service to pilots, flight crews, aircraft, or users of the Funny Farm Airport, you should consider listing it here.  To start the listing process, click on the button below
 
Add a business
 

Other Pages about Funny Farm Airport

Update a link
 
Copyright © AirNav, LLC. All rights reserved. Privacy Policy  Contact